sensor_id;sensor_type;location;lat;lon;timestamp;pressure;altitude;pressure_sealevel;temperature;humidity
25944;BME280;13742;49.306;8.636;2023-04-16T00:00:28;100521.98;;;9.22;100.00
25944;BME280;13742;49.306;8.636;2023-04-16T00:01:28;100521.06;;;9.25;100.00
25944;BME280;13742;49.306;8.636;2023-04-16T00:02:28;100518.27;;;9.27;100.00
25944;BME280;13742;49.306;8.636;2023-04-16T00:03:28;100520.27;;;9.24;100.00
25944;BME280;13742;49.306;8.636;2023-04-16T00:04:28;100522.57;;;9.25;100.00
25944;BME280;13742;49.306;8.636;2023-04-16T00:05:28;100521.78;;;9.26;100.00
25944;BME280;13742;49.306;8.636;2023-04-16T00:06:28;100521.73;;;9.22;100.00
25944;BME280;13742;49.306;8.636;2023-04-16T00:07:28;100519.70;;;9.21;100.00
25944;BME280;13742;49.306;8.636;2023-04-16T00:08:28;100516.95;;;9.20;100.00
25944;BME280;13742;49.306;8.636;2023-04-16T00:09:28;100522.70;;;9.17;100.00
25944;BME280;13742;49.306;8.636;2023-04-16T00:10:28;100519.92;;;9.20;100.00
25944;BME280;13742;49.306;8.636;2023-04-16T00:11:28;100524.00;;;9.19;100.00
25944;BME280;13742;49.306;8.636;2023-04-16T00:12:28;100524.68;;;9.16;100.00
25944;BME280;13742;49.306;8.636;2023-04-16T00:13:28;100521.61;;;9.18;100.00
25944;BME280;13742;49.306;8.636;2023-04-16T00:14:28;100520.23;;;9.16;100.00
25944;BME280;13742;49.306;8.636;2023-04-16T00:15:28;100526.82;;;9.17;100.00
25944;BME280;13742;49.306;8.636;2023-04-16T00:16:28;100526.58;;;9.17;100.00
25944;BME280;13742;49.306;8.636;2023-04-16T00:17:28;100527.08;;;9.18;100.00
25944;BME280;13742;49.306;8.636;2023-04-16T00:18:28;100527.59;;;9.17;100.00
25944;BME280;13742;49.306;8.636;2023-04-16T00:19:28;100530.28;;;9.17;100.00
25944;BME280;13742;49.306;8.636;2023-04-16T00:20:28;100531.72;;;9.13;100.00
25944;BME280;13742;49.306;8.636;2023-04-16T00:21:28;100529.91;;;9.11;100.00
25944;BME280;13742;49.306;8.636;2023-04-16T00:22:28;100531.59;;;9.10;100.00
25944;BME280;13742;49.306;8.636;2023-04-16T00:23:28;100532.94;;;9.08;100.00
25944;BME280;13742;49.306;8.636;2023-04-16T00:24:28;100533.30;;;9.04;100.00
25944;BME280;13742;49.306;8.636;2023-04-16T00:25:28;100531.19;;;9.03;100.00
25944;BME280;13742;49.306;8.636;2023-04-16T00:26:28;100532.16;;;9.04;100.00
25944;BME280;13742;49.306;8.636;2023-04-16T00:27:28;100532.28;;;9.03;100.00
25944;BME280;13742;49.306;8.636;2023-04-16T00:28:28;100530.67;;;8.99;100.00
25944;BME280;13742;49.306;8.636;2023-04-16T00:29:29;100532.17;;;9.01;100.00
25944;BME280;13742;49.306;8.636;2023-04-16T00:30:28;100530.30;;;9.01;100.00
25944;BME280;13742;49.306;8.636;2023-04-16T00:31:29;100529.78;;;9.00;100.00
25944;BME280;13742;49.306;8.636;2023-04-16T00:32:29;100531.42;;;9.00;100.00
25944;BME280;13742;49.306;8.636;2023-04-16T00:33:29;100531.44;;;8.99;100.00
25944;BME280;13742;49.306;8.636;2023-04-16T00:34:28;100533.81;;;9.01;100.00
25944;BME280;13742;49.306;8.636;2023-04-16T00:35:28;100529.78;;;9.00;100.00
25944;BME280;13742;49.306;8.636;2023-04-16T00:36:28;100527.30;;;9.00;100.00
25944;BME280;13742;49.306;8.636;2023-04-16T00:37:28;100531.17;;;9.01;100.00
25944;BME280;13742;49.306;8.636;2023-04-16T00:38:29;100522.36;;;8.98;100.00
25944;BME280;13742;49.306;8.636;2023-04-16T00:39:28;100526.41;;;8.98;100.00
25944;BME280;13742;49.306;8.636;2023-04-16T00:40:28;100526.27;;;8.97;100.00
25944;BME280;13742;49.306;8.636;2023-04-16T00:41:28;100528.22;;;8.97;100.00
25944;BME280;13742;49.306;8.636;2023-04-16T00:42:28;100526.05;;;8.95;100.00
25944;BME280;13742;49.306;8.636;2023-04-16T00:43:29;100530.78;;;8.98;100.00
25944;BME280;13742;49.306;8.636;2023-04-16T00:44:29;100529.07;;;8.97;100.00
25944;BME280;13742;49.306;8.636;2023-04-16T00:45:28;100526.20;;;8.98;100.00
25944;BME280;13742;49.306;8.636;2023-04-16T00:46:28;100524.56;;;9.00;100.00
25944;BME280;13742;49.306;8.636;2023-04-16T00:47:28;100528.77;;;9.01;100.00
25944;BME280;13742;49.306;8.636;2023-04-16T00:48:30;100529.97;;;9.00;100.00
25944;BME280;13742;49.306;8.636;2023-04-16T00:49:28;100529.37;;;8.95;100.00
25944;BME280;13742;49.306;8.636;2023-04-16T00:50:28;100531.94;;;8.94;100.00
25944;BME280;13742;49.306;8.636;2023-04-16T00:51:28;100534.22;;;8.95;100.00
25944;BME280;13742;49.306;8.636;2023-04-16T00:52:28;100532.09;;;8.99;100.00
25944;BME280;13742;49.306;8.636;2023-04-16T00:53:28;100533.27;;;9.01;100.00
25944;BME280;13742;49.306;8.636;2023-04-16T00:54:28;100539.19;;;9.00;100.00
25944;BME280;13742;49.306;8.636;2023-04-16T00:55:28;100534.73;;;8.98;100.00
25944;BME280;13742;49.306;8.636;2023-04-16T00:56:28;100536.44;;;8.97;100.00
25944;BME280;13742;49.306;8.636;2023-04-16T00:57:28;100537.08;;;9.00;100.00
25944;BME280;13742;49.306;8.636;2023-04-16T00:58:28;100539.58;;;9.01;100.00
25944;BME280;13742;49.306;8.636;2023-04-16T00:59:28;100537.16;;;8.99;100.00
25944;BME280;13742;49.306;8.636;2023-04-16T01:00:28;100540.03;;;8.98;100.00
25944;BME280;13742;49.306;8.636;2023-04-16T01:01:28;100534.88;;;9.00;100.00
25944;BME280;13742;49.306;8.636;2023-04-16T01:02:28;100535.64;;;8.99;100.00
25944;BME280;13742;49.306;8.636;2023-04-16T01:03:33;100538.36;;;8.98;100.00
25944;BME280;13742;49.306;8.636;2023-04-16T01:04:29;100535.58;;;8.98;100.00
25944;BME280;13742;49.306;8.636;2023-04-16T01:05:28;100536.38;;;8.98;100.00
25944;BME280;13742;49.306;8.636;2023-04-16T01:06:28;100536.81;;;8.97;100.00
25944;BME280;13742;49.306;8.636;2023-04-16T01:07:28;100536.57;;;8.98;100.00
25944;BME280;13742;49.306;8.636;2023-04-16T01:08:28;100538.20;;;8.99;100.00
25944;BME280;13742;49.306;8.636;2023-04-16T01:09:28;100536.38;;;8.99;100.00
25944;BME280;13742;49.306;8.636;2023-04-16T01:10:28;100535.80;;;8.98;100.00
25944;BME280;13742;49.306;8.636;2023-04-16T01:11:28;100535.31;;;8.99;100.00
25944;BME280;13742;49.306;8.636;2023-04-16T01:12:28;100536.53;;;9.00;100.00
25944;BME280;13742;49.306;8.636;2023-04-16T01:13:28;100533.16;;;8.98;100.00
25944;BME280;13742;49.306;8.636;2023-04-16T01:14:28;100536.38;;;8.99;100.00
25944;BME280;13742;49.306;8.636;2023-04-16T01:15:28;100531.88;;;8.99;100.00
25944;BME280;13742;49.306;8.636;2023-04-16T01:16:28;100533.25;;;8.98;100.00
25944;BME280;13742;49.306;8.636;2023-04-16T01:17:28;100533.36;;;8.99;100.00
25944;BME280;13742;49.306;8.636;2023-04-16T01:18:28;100530.66;;;9.00;100.00
25944;BME280;13742;49.306;8.636;2023-04-16T01:19:30;100531.01;;;8.99;100.00
25944;BME280;13742;49.306;8.636;2023-04-16T01:20:28;100531.02;;;9.03;100.00
25944;BME280;13742;49.306;8.636;2023-04-16T01:21:28;100532.09;;;8.99;100.00
25944;BME280;13742;49.306;8.636;2023-04-16T01:22:28;100531.78;;;9.00;100.00
25944;BME280;13742;49.306;8.636;2023-04-16T01:23:28;100532.14;;;9.00;100.00
25944;BME280;13742;49.306;8.636;2023-04-16T01:24:28;100533.76;;;9.01;100.00
25944;BME280;13742;49.306;8.636;2023-04-16T01:25:28;100536.52;;;9.03;100.00
25944;BME280;13742;49.306;8.636;2023-04-16T01:26:28;100537.92;;;9.01;100.00
25944;BME280;13742;49.306;8.636;2023-04-16T01:27:28;100536.59;;;9.02;100.00
25944;BME280;13742;49.306;8.636;2023-04-16T01:28:28;100538.60;;;9.03;100.00
25944;BME280;13742;49.306;8.636;2023-04-16T01:29:28;100541.30;;;9.05;100.00
25944;BME280;13742;49.306;8.636;2023-04-16T01:30:28;100545.20;;;9.05;100.00
25944;BME280;13742;49.306;8.636;2023-04-16T01:31:28;100542.23;;;9.03;100.00
25944;BME280;13742;49.306;8.636;2023-04-16T01:32:30;100544.51;;;9.04;100.00
25944;BME280;13742;49.306;8.636;2023-04-16T01:33:28;100545.70;;;9.07;100.00
25944;BME280;13742;49.306;8.636;2023-04-16T01:34:28;100543.28;;;9.08;100.00
25944;BME280;13742;49.306;8.636;2023-04-16T01:35:28;100549.39;;;9.09;100.00
25944;BME280;13742;49.306;8.636;2023-04-16T01:36:28;100549.98;;;9.07;100.00
25944;BME280;13742;49.306;8.636;2023-04-16T01:37:28;100550.89;;;9.08;100.00
25944;BME280;13742;49.306;8.636;2023-04-16T01:38:28;100552.03;;;9.06;100.00
25944;BME280;13742;49.306;8.636;2023-04-16T01:39:28;100555.90;;;9.05;100.00
25944;BME280;13742;49.306;8.636;2023-04-16T01:40:28;100556.06;;;9.05;100.00
25944;BME280;13742;49.306;8.636;2023-04-16T01:41:29;100559.36;;;9.03;100.00
25944;BME280;13742;49.306;8.636;2023-04-16T01:42:28;100552.95;;;9.04;100.00
25944;BME280;13742;49.306;8.636;2023-04-16T01:43:28;100554.15;;;9.05;100.00
25944;BME280;13742;49.306;8.636;2023-04-16T01:44:29;100559.64;;;9.07;100.00
25944;BME280;13742;49.306;8.636;2023-04-16T01:45:28;100561.27;;;9.06;100.00
25944;BME280;13742;49.306;8.636;2023-04-16T01:46:29;100560.52;;;9.05;100.00
25944;BME280;13742;49.306;8.636;2023-04-16T01:47:28;100556.48;;;9.04;100.00
25944;BME280;13742;49.306;8.636;2023-04-16T01:48:28;100563.98;;;9.05;100.00
25944;BME280;13742;49.306;8.636;2023-04-16T01:49:28;100560.88;;;9.06;100.00
25944;BME280;13742;49.306;8.636;2023-04-16T01:50:28;100562.22;;;9.05;100.00
25944;BME280;13742;49.306;8.636;2023-04-16T01:51:28;100560.84;;;9.03;100.00
25944;BME280;13742;49.306;8.636;2023-04-16T01:52:28;100564.82;;;9.04;100.00
25944;BME280;13742;49.306;8.636;2023-04-16T01:53:28;100567.42;;;9.03;100.00
25944;BME280;13742;49.306;8.636;2023-04-16T01:54:28;100565.47;;;9.02;100.00
25944;BME280;13742;49.306;8.636;2023-04-16T01:55:28;100566.02;;;9.02;100.00
25944;BME280;13742;49.306;8.636;2023-04-16T01:56:28;100565.92;;;8.99;100.00
25944;BME280;13742;49.306;8.636;2023-04-16T01:57:28;100566.91;;;8.99;100.00
25944;BME280;13742;49.306;8.636;2023-04-16T01:58:28;100564.29;;;8.97;100.00
25944;BME280;13742;49.306;8.636;2023-04-16T01:59:28;100561.34;;;9.00;100.00
25944;BME280;13742;49.306;8.636;2023-04-16T02:00:28;100565.98;;;9.01;100.00
25944;BME280;13742;49.306;8.636;2023-04-16T02:01:28;100564.86;;;9.02;100.00
25944;BME280;13742;49.306;8.636;2023-04-16T02:02:28;100565.28;;;8.98;100.00
25944;BME280;13742;49.306;8.636;2023-04-16T02:03:28;100567.42;;;8.97;100.00
25944;BME280;13742;49.306;8.636;2023-04-16T02:04:28;100570.14;;;8.94;100.00
25944;BME280;13742;49.306;8.636;2023-04-16T02:05:28;100570.14;;;8.94;100.00
25944;BME280;13742;49.306;8.636;2023-04-16T02:06:28;100569.16;;;8.94;100.00
25944;BME280;13742;49.306;8.636;2023-04-16T02:07:28;100570.34;;;8.95;100.00
25944;BME280;13742;49.306;8.636;2023-04-16T02:08:28;100569.38;;;8.97;100.00
25944;BME280;13742;49.306;8.636;2023-04-16T02:09:28;100572.14;;;8.91;100.00
25944;BME280;13742;49.306;8.636;2023-04-16T02:10:28;100571.98;;;8.93;100.00
25944;BME280;13742;49.306;8.636;2023-04-16T02:11:28;100572.67;;;8.89;100.00
25944;BME280;13742;49.306;8.636;2023-04-16T02:12:28;100570.62;;;8.89;100.00
25944;BME280;13742;49.306;8.636;2023-04-16T02:13:28;100568.64;;;8.89;100.00
25944;BME280;13742;49.306;8.636;2023-04-16T02:14:28;100566.31;;;8.86;100.00
25944;BME280;13742;49.306;8.636;2023-04-16T02:15:28;100571.75;;;8.86;100.00
25944;BME280;13742;49.306;8.636;2023-04-16T02:16:28;100572.06;;;8.88;100.00
25944;BME280;13742;49.306;8.636;2023-04-16T02:17:28;100566.80;;;8.85;100.00
25944;BME280;13742;49.306;8.636;2023-04-16T02:18:28;100572.41;;;8.85;100.00
25944;BME280;13742;49.306;8.636;2023-04-16T02:19:28;100569.70;;;8.85;100.00
25944;BME280;13742;49.306;8.636;2023-04-16T02:20:28;100567.88;;;8.86;100.00
25944;BME280;13742;49.306;8.636;2023-04-16T02:21:28;100565.22;;;8.87;100.00
25944;BME280;13742;49.306;8.636;2023-04-16T02:22:28;100565.44;;;8.87;100.00
25944;BME280;13742;49.306;8.636;2023-04-16T02:23:28;100564.09;;;8.87;100.00
25944;BME280;13742;49.306;8.636;2023-04-16T02:24:28;100567.52;;;8.87;100.00
25944;BME280;13742;49.306;8.636;2023-04-16T02:25:28;100567.14;;;8.87;100.00
25944;BME280;13742;49.306;8.636;2023-04-16T02:26:28;100565.13;;;8.81;100.00
25944;BME280;13742;49.306;8.636;2023-04-16T02:27:28;100568.95;;;8.82;100.00
25944;BME280;13742;49.306;8.636;2023-04-16T02:28:28;100567.39;;;8.83;100.00
25944;BME280;13742;49.306;8.636;2023-04-16T02:29:28;100568.97;;;8.86;100.00
25944;BME280;13742;49.306;8.636;2023-04-16T02:30:28;100571.08;;;8.84;100.00
25944;BME280;13742;49.306;8.636;2023-04-16T02:31:28;100571.55;;;8.84;100.00
25944;BME280;13742;49.306;8.636;2023-04-16T02:32:28;100570.34;;;8.81;100.00
25944;BME280;13742;49.306;8.636;2023-04-16T02:33:28;100568.74;;;8.79;100.00
25944;BME280;13742;49.306;8.636;2023-04-16T02:34:28;100569.52;;;8.81;100.00
25944;BME280;13742;49.306;8.636;2023-04-16T02:35:28;100572.83;;;8.80;100.00
25944;BME280;13742;49.306;8.636;2023-04-16T02:36:28;100570.91;;;8.78;100.00
25944;BME280;13742;49.306;8.636;2023-04-16T02:37:28;100575.31;;;8.77;100.00
25944;BME280;13742;49.306;8.636;2023-04-16T02:38:28;100568.36;;;8.76;100.00
25944;BME280;13742;49.306;8.636;2023-04-16T02:39:28;100571.47;;;8.77;100.00
25944;BME280;13742;49.306;8.636;2023-04-16T02:40:28;100571.72;;;8.76;100.00
25944;BME280;13742;49.306;8.636;2023-04-16T02:41:28;100576.59;;;8.76;100.00
25944;BME280;13742;49.306;8.636;2023-04-16T02:42:28;100574.95;;;8.76;100.00
25944;BME280;13742;49.306;8.636;2023-04-16T02:43:28;100574.88;;;8.77;100.00
25944;BME280;13742;49.306;8.636;2023-04-16T02:44:28;100576.48;;;8.74;100.00
25944;BME280;13742;49.306;8.636;2023-04-16T02:45:30;100580.02;;;8.75;100.00
25944;BME280;13742;49.306;8.636;2023-04-16T02:46:28;100574.77;;;8.74;100.00
25944;BME280;13742;49.306;8.636;2023-04-16T02:47:28;100574.52;;;8.73;100.00
25944;BME280;13742;49.306;8.636;2023-04-16T02:48:28;100572.77;;;8.73;100.00
25944;BME280;13742;49.306;8.636;2023-04-16T02:49:28;100573.14;;;8.71;100.00
25944;BME280;13742;49.306;8.636;2023-04-16T02:50:28;100576.53;;;8.69;100.00
25944;BME280;13742;49.306;8.636;2023-04-16T02:51:28;100573.83;;;8.69;100.00
25944;BME280;13742;49.306;8.636;2023-04-16T02:52:28;100575.38;;;8.69;100.00
25944;BME280;13742;49.306;8.636;2023-04-16T02:53:28;100573.80;;;8.71;100.00
25944;BME280;13742;49.306;8.636;2023-04-16T02:54:28;100579.11;;;8.70;100.00
25944;BME280;13742;49.306;8.636;2023-04-16T02:55:28;100580.20;;;8.74;100.00
25944;BME280;13742;49.306;8.636;2023-04-16T02:56:28;100578.14;;;8.73;100.00
25944;BME280;13742;49.306;8.636;2023-04-16T02:57:28;100576.25;;;8.73;100.00
25944;BME280;13742;49.306;8.636;2023-04-16T02:58:28;100582.94;;;8.72;100.00
25944;BME280;13742;49.306;8.636;2023-04-16T02:59:28;100578.88;;;8.74;100.00
25944;BME280;13742;49.306;8.636;2023-04-16T03:00:28;100580.45;;;8.75;100.00
25944;BME280;13742;49.306;8.636;2023-04-16T03:01:28;100577.88;;;8.75;100.00
25944;BME280;13742;49.306;8.636;2023-04-16T03:02:28;100578.84;;;8.74;100.00
25944;BME280;13742;49.306;8.636;2023-04-16T03:03:28;100578.81;;;8.75;100.00
25944;BME280;13742;49.306;8.636;2023-04-16T03:04:28;100579.23;;;8.76;100.00
25944;BME280;13742;49.306;8.636;2023-04-16T03:05:28;100584.15;;;8.73;100.00
25944;BME280;13742;49.306;8.636;2023-04-16T03:06:28;100582.84;;;8.73;100.00
25944;BME280;13742;49.306;8.636;2023-04-16T03:07:28;100581.41;;;8.74;100.00
25944;BME280;13742;49.306;8.636;2023-04-16T03:08:28;100580.14;;;8.76;100.00
25944;BME280;13742;49.306;8.636;2023-04-16T03:09:28;100579.10;;;8.77;100.00
25944;BME280;13742;49.306;8.636;2023-04-16T03:10:28;100580.70;;;8.77;100.00
25944;BME280;13742;49.306;8.636;2023-04-16T03:11:28;100579.41;;;8.78;100.00
25944;BME280;13742;49.306;8.636;2023-04-16T03:12:28;100584.33;;;8.76;100.00
25944;BME280;13742;49.306;8.636;2023-04-16T03:13:28;100586.88;;;8.75;100.00
25944;BME280;13742;49.306;8.636;2023-04-16T03:14:28;100584.39;;;8.78;100.00
25944;BME280;13742;49.306;8.636;2023-04-16T03:15:28;100583.24;;;8.76;100.00
25944;BME280;13742;49.306;8.636;2023-04-16T03:16:28;100582.51;;;8.77;100.00
25944;BME280;13742;49.306;8.636;2023-04-16T03:17:28;100590.98;;;8.78;100.00
25944;BME280;13742;49.306;8.636;2023-04-16T03:18:28;100588.69;;;8.78;100.00
25944;BME280;13742;49.306;8.636;2023-04-16T03:19:28;100588.88;;;8.79;100.00
25944;BME280;13742;49.306;8.636;2023-04-16T03:20:28;100589.35;;;8.80;100.00
25944;BME280;13742;49.306;8.636;2023-04-16T03:21:28;100588.78;;;8.79;100.00
25944;BME280;13742;49.306;8.636;2023-04-16T03:22:28;100590.02;;;8.80;100.00
25944;BME280;13742;49.306;8.636;2023-04-16T03:23:28;100587.74;;;8.81;100.00
25944;BME280;13742;49.306;8.636;2023-04-16T03:24:28;100588.11;;;8.82;100.00
25944;BME280;13742;49.306;8.636;2023-04-16T03:25:28;100587.80;;;8.85;100.00
25944;BME280;13742;49.306;8.636;2023-04-16T03:26:28;100590.84;;;8.85;100.00
25944;BME280;13742;49.306;8.636;2023-04-16T03:27:28;100588.09;;;8.85;100.00
25944;BME280;13742;49.306;8.636;2023-04-16T03:28:28;100591.16;;;8.83;100.00
25944;BME280;13742;49.306;8.636;2023-04-16T03:29:28;100590.19;;;8.80;100.00
25944;BME280;13742;49.306;8.636;2023-04-16T03:30:28;100587.73;;;8.82;100.00
25944;BME280;13742;49.306;8.636;2023-04-16T03:31:28;100590.45;;;8.83;100.00
25944;BME280;13742;49.306;8.636;2023-04-16T03:32:28;100591.89;;;8.82;100.00
25944;BME280;13742;49.306;8.636;2023-04-16T03:33:28;100591.58;;;8.81;100.00
25944;BME280;13742;49.306;8.636;2023-04-16T03:34:28;100595.73;;;8.82;100.00
25944;BME280;13742;49.306;8.636;2023-04-16T03:35:28;100593.05;;;8.82;100.00
25944;BME280;13742;49.306;8.636;2023-04-16T03:36:28;100598.62;;;8.78;100.00
25944;BME280;13742;49.306;8.636;2023-04-16T03:37:28;100598.86;;;8.82;100.00
25944;BME280;13742;49.306;8.636;2023-04-16T03:38:28;100602.69;;;8.84;100.00
25944;BME280;13742;49.306;8.636;2023-04-16T03:39:28;100601.63;;;8.85;100.00
25944;BME280;13742;49.306;8.636;2023-04-16T03:40:28;100601.50;;;8.82;100.00
25944;BME280;13742;49.306;8.636;2023-04-16T03:41:28;100601.98;;;8.80;100.00
25944;BME280;13742;49.306;8.636;2023-04-16T03:42:28;100604.43;;;8.81;100.00
25944;BME280;13742;49.306;8.636;2023-04-16T03:43:28;100605.81;;;8.80;100.00
25944;BME280;13742;49.306;8.636;2023-04-16T03:44:28;100597.48;;;8.80;100.00
25944;BME280;13742;49.306;8.636;2023-04-16T03:45:28;100604.36;;;8.82;100.00
25944;BME280;13742;49.306;8.636;2023-04-16T03:46:28;100600.16;;;8.83;100.00
25944;BME280;13742;49.306;8.636;2023-04-16T03:47:28;100603.20;;;8.82;100.00
25944;BME280;13742;49.306;8.636;2023-04-16T03:48:28;100603.57;;;8.77;100.00
25944;BME280;13742;49.306;8.636;2023-04-16T03:49:28;100601.69;;;8.78;100.00
25944;BME280;13742;49.306;8.636;2023-04-16T03:50:28;100605.50;;;8.77;100.00
25944;BME280;13742;49.306;8.636;2023-04-16T03:51:28;100610.05;;;8.77;100.00
25944;BME280;13742;49.306;8.636;2023-04-16T03:52:28;100606.31;;;8.76;100.00
25944;BME280;13742;49.306;8.636;2023-04-16T03:53:28;100607.95;;;8.76;100.00
25944;BME280;13742;49.306;8.636;2023-04-16T03:54:28;100611.22;;;8.74;100.00
25944;BME280;13742;49.306;8.636;2023-04-16T03:55:28;100608.05;;;8.73;100.00
25944;BME280;13742;49.306;8.636;2023-04-16T03:56:28;100611.05;;;8.74;100.00
25944;BME280;13742;49.306;8.636;2023-04-16T03:57:28;100610.83;;;8.75;100.00
25944;BME280;13742;49.306;8.636;2023-04-16T03:58:28;100608.00;;;8.73;100.00
25944;BME280;13742;49.306;8.636;2023-04-16T03:59:28;100606.77;;;8.74;100.00
25944;BME280;13742;49.306;8.636;2023-04-16T04:00:28;100607.93;;;8.72;100.00
25944;BME280;13742;49.306;8.636;2023-04-16T04:01:28;100604.72;;;8.72;100.00
25944;BME280;13742;49.306;8.636;2023-04-16T04:02:28;100606.66;;;8.69;100.00
25944;BME280;13742;49.306;8.636;2023-04-16T04:03:28;100604.64;;;8.72;100.00
25944;BME280;13742;49.306;8.636;2023-04-16T04:04:28;100606.78;;;8.73;100.00
25944;BME280;13742;49.306;8.636;2023-04-16T04:05:28;100606.35;;;8.70;100.00
25944;BME280;13742;49.306;8.636;2023-04-16T04:06:28;100607.28;;;8.70;100.00
25944;BME280;13742;49.306;8.636;2023-04-16T04:07:28;100606.69;;;8.71;100.00
25944;BME280;13742;49.306;8.636;2023-04-16T04:08:28;100603.38;;;8.71;100.00
25944;BME280;13742;49.306;8.636;2023-04-16T04:09:28;100609.78;;;8.69;100.00
25944;BME280;13742;49.306;8.636;2023-04-16T04:10:30;100608.48;;;8.69;100.00
25944;BME280;13742;49.306;8.636;2023-04-16T04:11:28;100614.08;;;8.71;100.00
25944;BME280;13742;49.306;8.636;2023-04-16T04:12:28;100615.23;;;8.71;100.00
25944;BME280;13742;49.306;8.636;2023-04-16T04:13:28;100610.64;;;8.71;100.00
25944;BME280;13742;49.306;8.636;2023-04-16T04:14:28;100614.31;;;8.70;100.00
25944;BME280;13742;49.306;8.636;2023-04-16T04:15:28;100615.63;;;8.70;100.00
25944;BME280;13742;49.306;8.636;2023-04-16T04:16:28;100611.95;;;8.70;100.00
25944;BME280;13742;49.306;8.636;2023-04-16T04:17:28;100615.75;;;8.68;100.00
25944;BME280;13742;49.306;8.636;2023-04-16T04:18:28;100612.36;;;8.70;100.00
25944;BME280;13742;49.306;8.636;2023-04-16T04:19:28;100615.01;;;8.68;100.00
25944;BME280;13742;49.306;8.636;2023-04-16T04:20:28;100614.87;;;8.67;100.00
25944;BME280;13742;49.306;8.636;2023-04-16T04:21:28;100613.03;;;8.68;100.00
25944;BME280;13742;49.306;8.636;2023-04-16T04:22:28;100618.63;;;8.68;100.00
25944;BME280;13742;49.306;8.636;2023-04-16T04:23:28;100617.69;;;8.69;100.00
25944;BME280;13742;49.306;8.636;2023-04-16T04:24:28;100619.36;;;8.70;100.00
25944;BME280;13742;49.306;8.636;2023-04-16T04:25:28;100617.13;;;8.69;100.00
25944;BME280;13742;49.306;8.636;2023-04-16T04:26:28;100618.88;;;8.68;100.00
25944;BME280;13742;49.306;8.636;2023-04-16T04:27:28;100617.85;;;8.67;100.00
25944;BME280;13742;49.306;8.636;2023-04-16T04:28:28;100614.33;;;8.65;100.00
25944;BME280;13742;49.306;8.636;2023-04-16T04:29:28;100616.19;;;8.65;100.00
25944;BME280;13742;49.306;8.636;2023-04-16T04:30:28;100618.77;;;8.64;100.00
25944;BME280;13742;49.306;8.636;2023-04-16T04:31:28;100615.11;;;8.66;100.00
25944;BME280;13742;49.306;8.636;2023-04-16T04:32:28;100621.32;;;8.64;100.00
25944;BME280;13742;49.306;8.636;2023-04-16T04:33:28;100624.48;;;8.64;100.00
25944;BME280;13742;49.306;8.636;2023-04-16T04:34:28;100621.20;;;8.64;100.00
25944;BME280;13742;49.306;8.636;2023-04-16T04:35:28;100622.97;;;8.64;100.00
25944;BME280;13742;49.306;8.636;2023-04-16T04:36:28;100623.78;;;8.63;100.00
25944;BME280;13742;49.306;8.636;2023-04-16T04:37:28;100619.28;;;8.63;100.00
25944;BME280;13742;49.306;8.636;2023-04-16T04:38:29;100623.98;;;8.64;100.00
25944;BME280;13742;49.306;8.636;2023-04-16T04:39:28;100624.41;;;8.63;100.00
25944;BME280;13742;49.306;8.636;2023-04-16T04:40:28;100629.89;;;8.62;100.00
25944;BME280;13742;49.306;8.636;2023-04-16T04:41:28;100628.07;;;8.65;100.00
25944;BME280;13742;49.306;8.636;2023-04-16T04:42:28;100629.88;;;8.65;100.00
25944;BME280;13742;49.306;8.636;2023-04-16T04:43:28;100631.78;;;8.65;100.00
25944;BME280;13742;49.306;8.636;2023-04-16T04:44:28;100632.91;;;8.62;100.00
25944;BME280;13742;49.306;8.636;2023-04-16T04:45:28;100635.59;;;8.63;100.00
25944;BME280;13742;49.306;8.636;2023-04-16T04:46:28;100637.11;;;8.63;100.00
25944;BME280;13742;49.306;8.636;2023-04-16T04:47:28;100638.41;;;8.61;100.00
25944;BME280;13742;49.306;8.636;2023-04-16T04:48:28;100639.69;;;8.63;100.00
25944;BME280;13742;49.306;8.636;2023-04-16T04:49:29;100638.34;;;8.63;100.00
25944;BME280;13742;49.306;8.636;2023-04-16T04:50:28;100637.31;;;8.64;100.00
25944;BME280;13742;49.306;8.636;2023-04-16T04:51:28;100643.52;;;8.65;100.00
25944;BME280;13742;49.306;8.636;2023-04-16T04:52:28;100644.03;;;8.64;100.00
25944;BME280;13742;49.306;8.636;2023-04-16T04:53:28;100644.31;;;8.65;100.00
25944;BME280;13742;49.306;8.636;2023-04-16T04:54:29;100650.36;;;8.66;100.00
25944;BME280;13742;49.306;8.636;2023-04-16T04:55:28;100646.90;;;8.66;100.00
25944;BME280;13742;49.306;8.636;2023-04-16T04:56:28;100650.61;;;8.67;100.00
25944;BME280;13742;49.306;8.636;2023-04-16T04:57:28;100647.11;;;8.68;100.00
25944;BME280;13742;49.306;8.636;2023-04-16T04:58:28;100654.23;;;8.69;100.00
25944;BME280;13742;49.306;8.636;2023-04-16T04:59:28;100652.20;;;8.70;100.00
25944;BME280;13742;49.306;8.636;2023-04-16T05:00:28;100650.81;;;8.68;100.00
25944;BME280;13742;49.306;8.636;2023-04-16T05:01:28;100653.03;;;8.68;100.00
25944;BME280;13742;49.306;8.636;2023-04-16T05:02:28;100654.95;;;8.68;100.00
25944;BME280;13742;49.306;8.636;2023-04-16T05:03:28;100656.54;;;8.67;100.00
25944;BME280;13742;49.306;8.636;2023-04-16T05:04:28;100655.86;;;8.67;100.00
25944;BME280;13742;49.306;8.636;2023-04-16T05:05:28;100655.03;;;8.67;100.00
25944;BME280;13742;49.306;8.636;2023-04-16T05:06:28;100657.27;;;8.68;100.00
25944;BME280;13742;49.306;8.636;2023-04-16T05:07:28;100657.56;;;8.68;100.00
25944;BME280;13742;49.306;8.636;2023-04-16T05:08:28;100655.69;;;8.70;100.00
25944;BME280;13742;49.306;8.636;2023-04-16T05:09:28;100653.73;;;8.69;100.00
25944;BME280;13742;49.306;8.636;2023-04-16T05:10:28;100656.65;;;8.71;100.00
25944;BME280;13742;49.306;8.636;2023-04-16T05:11:28;100651.39;;;8.72;100.00
25944;BME280;13742;49.306;8.636;2023-04-16T05:12:28;100651.16;;;8.73;100.00
25944;BME280;13742;49.306;8.636;2023-04-16T05:13:28;100656.83;;;8.73;100.00